CYVR/YVR METAR and TAF weather

Enter ICAO airport designator
Station Type Date Time Source
CYVR METAR 2021/04/14 20:00 UTC NOAA

CYVR 142000Z 30017KT 20SM FEW240 13/05 A3019 RMK CI1 SLP225


Station Type Date Time Source
CYVR Decoded METAR 2021/04/14 20:00 UTC NOAA

Vancouver International Air-Port, B. C., Canada (CYVR) 49-11N 123-10W 2M
Apr 14, 2021 - 04:00 PM EDT / 2021.04.14 2000 UTC
Wind: from the WNW (300 degrees) at 20 MPH (17 KT):0
Visibility: 20 mile(s):0
Sky conditions: mostly clear
Temperature: 55 F (13 C)
Dew Point: 41 F (5 C)
Relative Humidity: 58%
Pressure (altimeter): 30.19 in. Hg (1022 hPa)
ob: CYVR 142000Z 30017KT 20SM FEW240 13/05 A3019 RMK CI1 SLP225
cycle: 20

Station Type Date Time Source
CYVR TAF 2021/04/14 18:39 UTC NOAA

TAF CYVR 141738Z 1418/1524 29015KT P6SM FEW240
FM150300 30008KT P6SM FEW250
BECMG 1510/1512 VRB03KT
FM151800 28010KT P6SM SKC
RMK NXT FCST BY 142100Z

Example: see airport list